Nearby METAR Reports

 

KTEB - Teterboro, New Jersey, USA
Distance from station: ENE 2mi, 4km
Updated: 05/21/2022 3:51am
Fog, Overcast
Fog, Overcast
 Wind from calm
Wind: Calm
Temperature: 63°F , 17°C
Dew Point: 63°F , 17°C
Humidity: 100%
Barometer: 29.93 inHg , 1013.5 hPa
Summary: Fog
Clouds: Overcast
Visibility: 1/2 mile , 0.8 km
Cloud details: Overcast 200 ft
2022/05/21 07:51 KTEB 210751Z 00000KT 1/2SM R06/P6000FT FG OVC002 17/17 A2993 RMK AO2 SLP135 T01720167
KNYC - Nyc/Central Park, New York, USA
Distance from station: SE 8mi, 13km
Updated: 05/21/2022 3:51am
Fog, Overcast
Fog, Overcast
 Wind from calm
Wind: Calm
Temperature: 63°F , 17°C
Dew Point: 61°F , 16°C
Humidity: 94%
Barometer: 29.97 inHg , 1014.9 hPa
Summary: Fog
Clouds: Overcast
Visibility: 1/4 mile , 0.4 km
Cloud details: Overcast 200 ft
2022/05/21 07:51 KNYC 210751Z AUTO 00000KT 1/4SM FG VV002 17/16 A2997 RMK AO2 SLP139 T01670161 $
 
KCDW - Caldwell, New Jersey, USA
Distance from station: WNW 10mi, 17km
Updated: 05/21/2022 3:53am
Mist, Overcast
Mist, Overcast
 Wind from calm
Wind: Calm
Temperature: 66°F , 19°C
Dew Point: 63°F , 17°C
Humidity: 88%
Barometer: 29.95 inHg , 1014.2 hPa
Summary: Mist
Clouds: Overcast
Visibility: 4 miles , 6 km
Cloud details: Overcast 400 ft
2022/05/21 07:53 KCDW 210753Z AUTO 00000KT 4SM BR OVC004 19/17 A2995 RMK AO2 SLP145 T01890172
KLGA - Nyc/La Guardia, New York, USA
Distance from station: ESE 12mi, 19km
Updated: 05/21/2022 3:51am
Fog, Overcast
Fog, Overcast
 Wind from ENE
Wind: ENE 5 mph , 7 km/h
Temperature: 59°F , 15°C
Dew Point: 57°F , 14°C
Humidity: 94%
Barometer: 29.94 inHg , 1013.9 hPa
Summary: Fog
Clouds: Overcast
Visibility: 1/8 mile , 0.2 km
Cloud details: Overcast 200 ft
2022/05/21 07:51 KLGA 210751Z 07004KT 1/8SM R04/2200V2600FT FG VV002 15/14 A2994 RMK AO2 SFC VIS 1/2 SLP138 T01500144
 
KEWR - Newark, New Jersey, USA
Distance from station: SSW 12mi, 20km
Updated: 05/21/2022 3:51am
Mist, Overcast
Mist, Overcast
 Wind from NNE
Wind: NNE 7 mph , 11 km/h
Temperature: 64°F , 18°C
Dew Point: 63°F , 17°C
Humidity: 94%
Barometer: 29.94 inHg , 1013.9 hPa
Summary: Mist
Clouds: Overcast
Visibility: 3/4 mile , 1.2 km
Cloud details: Overcast 200 ft
2022/05/21 07:51 KEWR 210751Z 02006KT 3/4SM R04R/P6000FT BR OVC002 18/17 A2994 RMK AO2 SLP138 T01780167
KMMU - Morristown Muni, New Jersey, USA
Distance from station: WSW 18mi, 29km
Updated: 05/21/2022 3:55am
Mist, Overcast
Mist, Overcast
 Wind from calm
Wind: Calm
Temperature: 63°F , 17°C
Dew Point: 63°F , 17°C
Humidity: 100%
Barometer: 29.95 inHg , 1014.2 hPa
Summary: Mist
Clouds: Overcast
Visibility: 1 1/4 miles , 2 km
Cloud details: Overcast 200 ft
2022/05/21 07:55 KMMU 210755Z AUTO 00000KT 1 1/4SM BR OVC002 17/17 A2995 RMK AO2
 
KJFK - Nyc/Jfk Arpt, New York, USA
Distance from station: SE 23mi, 36km
Updated: 05/21/2022 4:00am
Fog, Overcast
Fog, Overcast
 Wind from calm
Wind: Calm
Temperature: 61°F , 16°C
Dew Point: 61°F , 16°C
Humidity: 100%
Barometer: 29.95 inHg , 1014.2 hPa
Summary: Fog
Clouds: Overcast
Visibility: 1/2 mile , 0.8 km
Cloud details: Overcast 200 ft
2022/05/21 08:00 KJFK 210800Z 00000KT 1/2SM R04R/2000V2600FT FG VV002 16/16 A2995 RMK AO2 T01560156
KHPN - White Plains, New York, USA
Distance from station: NE 25mi, 40km
Updated: 05/21/2022 3:56am
Fog, Overcast
Fog, Overcast
 Wind from calm
Wind: Calm
Temperature: 63°F , 17°C
Dew Point: 61°F , 16°C
Humidity: 94%
Barometer: 29.94 inHg , 1013.9 hPa
Summary: Fog
Clouds: Overcast
Visibility: less than 1/4 mile , 0.4 km
Cloud details: Overcast 100 ft
2022/05/21 07:56 KHPN 210756Z 00000KT M1/4SM FG VV001 17/16 A2994 RMK AO2 DZE52 SLP135 P0000 T01720161 RVRNO
 
KSMQ - Somerville, New Jersey, USA
Distance from station: WSW 34mi, 55km
Updated: 05/21/2022 4:08am
Mist, Overcast
Mist, Overcast
 Wind from calm
Wind: Calm
Temperature: 64°F , 18°C
Dew Point: 64°F , 18°C
Humidity: 100%
Barometer: 29.94 inHg , 1013.9 hPa
Summary: Mist
Clouds: Overcast
Visibility: 2 miles , 3 km
Cloud details: Overcast 400 ft
2022/05/21 08:08 KSMQ 210808Z AUTO 00000KT 2SM BR OVC004 18/18 A2994 RMK AO2 T01830178
K12N - Andover, New Jersey, USA
Distance from station: WNW 36mi, 57km
Updated: 05/21/2022 3:54am

 Wind from calm
Wind: Calm
Temperature: 64°F , 18°C
Dew Point: 63°F , 17°C
Humidity: 94%
Barometer: 29.95 inHg , 1014.2 hPa
2022/05/21 07:54 K12N 210754Z AUTO 00000KT 18/17 A2995 RMK AO1 SLP137 T01830172
 
KFRG - Farmingdale, New York, USA
Distance from station: ESE 36mi, 58km
Updated: 05/21/2022 3:53am
Fog, Overcast
Fog, Overcast
 Wind from calm
Wind: Calm
Temperature: 61°F , 16°C
Dew Point: 59°F , 15°C
Humidity: 94%
Barometer: 29.95 inHg , 1014.2 hPa
Summary: Fog
Clouds: Overcast
Visibility: 1/4 mile , 0.4 km
Cloud details: Overcast 200 ft
2022/05/21 07:53 KFRG 210753Z AUTO 00000KT 1/4SM FG VV002 16/15 A2995 RMK AO2 SLP140 T01560150
KFWN - Sussex, New Jersey, USA
Distance from station: NW 37mi, 60km
Updated: 05/21/2022 4:00am
Mist, Overcast
Mist, Overcast
 Wind from calm
Wind: Calm
Temperature: 64°F , 18°C
Dew Point: 63°F , 17°C
Humidity: 94%
Barometer: 29.95 inHg , 1014.2 hPa
Summary: Mist
Clouds: Overcast
Visibility: 1 mile , 2 km
Cloud details: Overcast 300 ft
2022/05/21 08:00 KFWN 210800Z AUTO 00000KT 1SM BR OVC003 18/17 A2995 RMK AO2 T01780172
 
KSWF - Newburgh/Stewart, New York, USA
Distance from station: 0 45mi, 72km
Updated: 05/21/2022 3:45am
Fog, Overcast
Fog, Overcast
 Wind from ENE
Wind: ENE 5 mph , 7 km/h
Temperature: 63°F , 17°C
Dew Point: 63°F , 17°C
Humidity: 100%
Barometer: 29.94 inHg , 1013.9 hPa
Summary: Fog
Clouds: Overcast
Visibility: 1/4 mile , 0.4 km
Cloud details: Overcast 200 ft
2022/05/21 07:45 KSWF 210745Z 07004KT 1/4SM R09/1400FT FG OVC002 17/17 A2994
KMGJ - Montgomery, New York, USA
Distance from station: NNW 47mi, 75km
Updated: 05/21/2022 4:03am
Mist, Overcast
Mist, Overcast
 Wind from calm
Wind: Calm
Temperature: 63°F , 17°C
Dew Point: 61°F , 16°C
Humidity: 94%
Barometer: 29.93 inHg , 1013.5 hPa
Summary: Mist
Clouds: Overcast
Visibility: 3 miles , 5 km
Cloud details: Overcast 600 ft
2022/05/21 08:03 KMGJ 210803Z AUTO 00000KT 3SM BR OVC006 17/16 A2993 RMK AO2 CIG 005V009 T01670161
 
KBLM - Belmar/Farmdale, New Jersey, USA
Distance from station: S 47mi, 76km
Updated: 05/21/2022 3:56am
Fog, Overcast
Fog, Overcast
 Wind from N
Wind: N 5 mph , 7 km/h
Temperature: 61°F , 16°C
Barometer: 29.96 inHg , 1014.6 hPa
Summary: Fog
Clouds: Overcast
Visibility: 1/2 mile , 0.8 km
Cloud details: Overcast 200 ft
2022/05/21 07:56 KBLM 210756Z AUTO 36004KT 1/2SM FG OVC002 16/ A2996 RMK AO2 SLP145 T0156 RVRNO
KDXR - Danbury, Connecticut, USA
Distance from station: NE 47mi, 76km
Updated: 05/21/2022 3:53am
Mist, Overcast
Mist, Overcast
 Wind from calm
Wind: Calm
Temperature: 64°F , 18°C
Dew Point: 63°F , 17°C
Humidity: 94%
Barometer: 29.95 inHg , 1014.2 hPa
Summary: Mist
Clouds: Overcast
Visibility: 1 1/2 miles , 2.4 km
Cloud details: Overcast 300 ft
2022/05/21 07:53 KDXR 210753Z AUTO 00000KT 1 1/2SM BR OVC003 18/17 A2995 RMK AO2 SLP139 T01780167
 
KISP - Islip, New York, USA
Distance from station: E 52mi, 83km
Updated: 05/21/2022 4:06am
Fog, Overcast
Fog, Overcast
 Wind from SW
Wind: SW 3 mph , 6 km/h
Temperature: 59°F , 15°C
Dew Point: 59°F , 15°C
Humidity: 100%
Barometer: 29.94 inHg , 1013.9 hPa
Summary: Fog
Clouds: Overcast
Visibility: 1/4 mile , 0.4 km
Cloud details: Overcast 200 ft
2022/05/21 08:06 KISP 210806Z AUTO 22003KT 1/4SM FG VV002 15/15 A2994 RMK AO2 TWR VIS 1/2 T01500150 RVRNO
KBDR - Bridgeport, Connecticut, USA
Distance from station: ENE 54mi, 87km
Updated: 05/21/2022 3:52am
Fog, Overcast
Fog, Overcast
 Wind from ENE
Wind: ENE 7 mph , 11 km/h
Temperature: 57°F , 14°C
Dew Point: 57°F , 14°C
Humidity: 100%
Barometer: 29.94 inHg , 1013.9 hPa
Summary: Fog
Clouds: Overcast
Visibility: 1/2 mile , 0.8 km
Cloud details: Overcast 200 ft
2022/05/21 07:52 KBDR 210752Z AUTO 07006KT 1/2SM FG VV002 14/14 A2994 RMK AO2 SLP137 T01440144
 
KTTN - Trenton, New Jersey, USA
Distance from station: SW 55mi, 88km
Updated: 05/21/2022 4:02am
Fog, Overcast
Fog, Overcast
 Wind from N
Wind: N 6 mph , 9 km/h
Temperature: 63°F , 17°C
Dew Point: 63°F , 17°C
Humidity: 100%
Barometer: 29.94 inHg , 1013.9 hPa
Summary: Fog
Clouds: Overcast
Visibility: 1/4 mile , 0.4 km
Cloud details: Overcast 200 ft
2022/05/21 08:02 KTTN 210802Z AUTO 01005KT 1/4SM FG VV002 17/17 A2994 RMK AO2 T01720172
KPOU - Poughkeepsie, New York, USA
Distance from station: N 55mi, 89km
Updated: 05/21/2022 4:00am
Mist, Overcast
Mist, Overcast
 Wind from calm
Wind: Calm
Temperature: 64°F , 18°C
Dew Point: 63°F , 17°C
Humidity: 94%
Barometer: 29.92 inHg , 1013.2 hPa
Summary: Mist
Clouds: Overcast
Visibility: 3 miles , 5 km
Cloud details: Overcast 700 ft
2022/05/21 08:00 KPOU 210800Z AUTO 00000KT 3SM BR OVC007 18/17 A2992 RMK AO2 CIG 004V010 T01780172
 
KNEL - Lakehurst Nas, New Jersey, USA
Distance from station: SSW 59mi, 95km
Updated: 05/21/2022 4:00am
Mist, Overcast
Mist, Overcast
 Wind from calm
Wind: Calm
Temperature: 63°F , 17°C
Dew Point: 63°F , 17°C
Humidity: 100%
Barometer: 29.93 inHg , 1013.5 hPa
Summary: Mist
Clouds: Overcast
Visibility: 1 1/2 miles , 2.4 km
Cloud details: Overcast 200 ft
2022/05/21 08:00 KNEL 210800Z AUTO 00000KT 1 1/2SM BR OVC002 17/17 A2993 RMK AO2 SLP133 T01720167 $
KWRI - Wrightst/Mcguire, New Jersey, USA
Distance from station: SSW 63mi, 102km
Updated: 05/21/2022 4:06am
Mist, Partly cloudy
Mist, Partly cloudy
 Wind from NNE
Wind: NNE 5 mph , 7 km/h
Temperature: 63°F , 17°C
Dew Point: 63°F , 17°C
Humidity: 100%
Barometer: 29.94 inHg , 1013.9 hPa
Summary: Mist
Clouds: Partly cloudy
Visibility: 3 miles , 5 km
Cloud details: Partly cloudy 0 ft
2022/05/21 08:06 KWRI 210806Z 02004KT 3SM BR SCT000 17/17 A2994 RMK AO2A SLP138
 
KHWV - Shirley, New York, USA
Distance from station: E 64mi, 103km
Updated: 05/21/2022 3:56am
Fog, Overcast
Fog, Overcast
 Wind from S
Wind: S 3 mph , 6 km/h
Temperature: 59°F , 15°C
Dew Point: 57°F , 14°C
Humidity: 94%
Barometer: 29.95 inHg , 1014.2 hPa
Summary: Fog
Clouds: Overcast
Visibility: 1/2 mile , 0.8 km
Cloud details: Overcast 200 ft
2022/05/21 07:56 KHWV 210756Z AUTO 17003KT 1/2SM FG VV002 15/14 A2995 RMK AO2 SLP141 T01500144
KMJX - Toms River, New Jersey, USA
Distance from station: S 64mi, 104km
Updated: 05/03/2022 9:08am
NOT Current
Overcast
Overcast
 Wind from ENE
Wind: ENE 9 mph , 15 km/h
Temperature: 55°F , 13°C
Dew Point: 50°F , 10°C
Humidity: 82%
Barometer: 30.18 inHg , 1022 hPa
Clouds: Overcast
Visibility: 10 miles , 16 km
Cloud details: Overcast 1100 ft
2022/05/03 13:08 KMJX 031308Z AUTO 06008KT 10SM OVC011 13/10 A3018 RMK AO2
 
KDYL - Doylestown, Pennsylvania, USA
Distance from station: SW 65mi, 104km
Updated: 05/21/2022 3:54am
Mist, Overcast
Mist, Overcast
 Wind from NNE
Wind: NNE 3 mph , 6 km/h
Temperature: 64°F , 18°C
Dew Point: 63°F , 17°C
Humidity: 94%
Barometer: 29.94 inHg , 1013.9 hPa
Summary: Mist
Clouds: Overcast
Visibility: 3/4 mile , 1.2 km
Cloud details: Overcast 200 ft
2022/05/21 07:54 KDYL 210754Z AUTO 03003KT 3/4SM BR VV002 18/17 A2994 RMK AO2 SLP136 T01830172
KOXC - Oxford/Waterbury, Connecticut, USA
Distance from station: NE 65mi, 105km
Updated: 05/21/2022 3:51am
Fog, Overcast
Fog, Overcast
 Wind from ESE
Wind: ESE 5 mph , 7 km/h
Temperature: 63°F , 17°C
Dew Point: 63°F , 17°C
Humidity: 100%
Barometer: 29.96 inHg , 1014.6 hPa
Summary: Fog
Clouds: Overcast
Visibility: 1/4 mile , 0.4 km
Cloud details: Overcast 200 ft
2022/05/21 07:51 KOXC 210751Z AUTO 11004KT 1/4SM FG OVC002 17/17 A2996 RMK AO2 SLP153 T01670167
 
KMSV - Monticello, New York, USA
Distance from station: NNW 69mi, 111km
Updated: 05/21/2022 3:56am
Light rain, Fog, Overcast
Light rain, Fog, Overcast
 Wind from calm
Wind: Calm
Temperature: 61°F , 16°C
Dew Point: 61°F , 16°C
Humidity: 100%
Barometer: 29.97 inHg , 1014.9 hPa
Summary: Light rain, Fog
Clouds: Overcast
Visibility: 1/4 mile , 0.4 km
Cloud details: Overcast 200 ft
2022/05/21 07:56 KMSV 210756Z AUTO 00000KT 1/4SM -RA FG OVC002 16/16 A2997 RMK AO2 RAB16 SLP142 P0000 T01610161 RVRNO
KHVN - New Haven/Tweed, Connecticut, USA
Distance from station: ENE 70mi, 112km
Updated: 05/21/2022 3:53am
Fog, Overcast
Fog, Overcast
 Wind from ESE
Wind: ESE 7 mph , 11 km/h
Temperature: 63°F , 17°C
Dew Point: 63°F , 17°C
Humidity: 100%
Barometer: 29.94 inHg , 1013.9 hPa
Summary: Fog
Clouds: Overcast
Visibility: 1/4 mile , 0.4 km
Cloud details: Overcast 200 ft
2022/05/21 07:53 KHVN 210753Z AUTO 11006KT 1/4SM R02/2000V2200FT FG VV002 17/17 A2994 RMK AO2 SLP138 T01720167
 
KMPO - Mt. Pocono, Pennsylvania, USA
Distance from station: WNW 70mi, 113km
Updated: 05/21/2022 3:53am
Fog, Overcast
Fog, Overcast
 Wind from W
Wind: W 5 mph , 7 km/h
Temperature: 64°F , 18°C
Dew Point: 64°F , 18°C
Humidity: 100%
Barometer: 29.98 inHg , 1015.2 hPa
Summary: Fog
Clouds: Overcast
Visibility: 1/4 mile , 0.4 km
Cloud details: Overcast 100 ft
2022/05/21 07:53 KMPO 210753Z AUTO 26004KT 1/4SM FG VV001 18/18 A2998 RMK AO2 SLP145 T01780178
KPNE - Philadelphia/Ne, Pennsylvania, USA
Distance from station: SW 72mi, 116km
Updated: 05/21/2022 4:08am
Mist, Overcast
Mist, Overcast
 Wind from NE
Wind: NE 6 mph , 9 km/h
Temperature: 68°F , 20°C
Dew Point: 68°F , 20°C
Humidity: 100%
Barometer: 29.96 inHg , 1014.6 hPa
Summary: Mist
Clouds: Overcast
Visibility: 1 1/4 miles , 2 km
Cloud details: Overcast 100 ft
2022/05/21 08:08 KPNE 210808Z 04005KT 1 1/4SM BR OVC001 20/20 A2996 RMK AO2 T02000200
 
KABE - Allentown, Pennsylvania, USA
Distance from station: W 73mi, 117km
Updated: 05/21/2022 3:51am
Fog, Overcast
Fog, Overcast
 Wind from ENE
Wind: ENE 5 mph , 7 km/h
Temperature: 64°F , 18°C
Dew Point: 63°F , 17°C
Humidity: 94%
Barometer: 29.95 inHg , 1014.2 hPa
Summary: Fog
Clouds: Overcast
Visibility: 1/2 mile , 0.8 km
Cloud details: Overcast 200 ft
2022/05/21 07:51 KABE 210751Z 06004KT 1/2SM FG VV002 18/17 A2995 RMK AO2 SLP141 T01780172
KUKT - Quakertown Arp, Pennsylvania, USA
Distance from station: WSW 74mi, 119km
Updated: 05/21/2022 3:55am
Mist, Overcast
Mist, Overcast
 Wind from calm
Wind: Calm
Temperature: 64°F , 18°C
Dew Point: 64°F , 18°C
Humidity: 100%
Barometer: 29.96 inHg , 1014.6 hPa
Summary: Mist
Clouds: Overcast
Visibility: 1/2 mile , 0.8 km
Cloud details: Overcast 200 ft
2022/05/21 07:55 KUKT 210755Z AUTO 00000KT 1/2SM BR OVC002 18/18 A2996 RMK A01
 
KVAY - Mount Holly, New Jersey, USA
Distance from station: SSW 75mi, 120km
Updated: 05/21/2022 3:54am
Mist, Clear
Mist, Clear
 Wind from calm
Wind: Calm
Temperature: 64°F , 18°C
Dew Point: 63°F , 17°C
Humidity: 94%
Barometer: 29.94 inHg , 1013.9 hPa
Summary: Mist
Clouds: Clear
Visibility: 3 miles , 5 km
2022/05/21 07:54 KVAY 210754Z AUTO 00000KT 3SM BR CLR 18/17 A2994 RMK AO2 SLP136 T01830172
KXLL - Allentown Queen, Pennsylvania, USA
Distance from station: WSW 76mi, 122km
Updated: 05/21/2022 3:55am
Fog, Overcast
Fog, Overcast
 Wind from NE
Wind: NE 5 mph , 7 km/h
Temperature: 64°F , 18°C
Dew Point: 64°F , 18°C
Humidity: 100%
Barometer: 29.96 inHg , 1014.6 hPa
Summary: Fog
Clouds: Overcast
Visibility: 1/4 mile , 0.4 km
Cloud details: Overcast 300 ft
2022/05/21 07:55 KXLL 210755Z AUTO 05004KT 1/4SM FG OVC003 18/18 A2996 RMK AO2
 
KFOK - Westhampton Beac, New York, USA
Distance from station: E 77mi, 124km
Updated: 05/21/2022 3:53am
Fog, Overcast
Fog, Overcast
 Wind from S
Wind: S 5 mph , 7 km/h
Temperature: 57°F , 14°C
Dew Point: 57°F , 14°C
Humidity: 100%
Barometer: 29.96 inHg , 1014.6 hPa
Summary: Fog
Clouds: Overcast
Visibility: 1/2 mile , 0.8 km
Cloud details: Overcast 200 ft
2022/05/21 07:53 KFOK 210753Z AUTO 17004KT 1/2SM FG VV002 14/14 A2996 RMK AO2 SLP144 T01440144 $
KLOM - Philly Wings F, Pennsylvania, USA
Distance from station: SW 79mi, 128km
Updated: 05/21/2022 3:55am
Fog, Overcast
Fog, Overcast
 Wind from NNE
Wind: NNE 3 mph , 6 km/h
Temperature: 66°F , 19°C
Dew Point: 66°F , 19°C
Humidity: 100%
Barometer: 29.95 inHg , 1014.2 hPa
Summary: Fog
Clouds: Overcast
Visibility: 1/2 mile , 0.8 km
Cloud details: Overcast 200 ft
2022/05/21 07:55 KLOM 210755Z AUTO 02003KT 1/2SM FG OVC002 19/19 A2995 RMK AO2 T01930192
 
KMMK - Meriden, Connecticut, USA
Distance from station: NE 80mi, 128km
Updated: 05/21/2022 4:03am
Mist, Overcast
Mist, Overcast
 Wind from calm
Wind: Calm
Temperature: 63°F , 17°C
Dew Point: 63°F , 17°C
Humidity: 100%
Barometer: 29.94 inHg , 1013.9 hPa
Summary: Mist
Clouds: Overcast
Visibility: 1 mile , 2 km
Cloud details: Overcast 300 ft
2022/05/21 08:03 KMMK 210803Z AUTO 00000KT 1SM BR VV003 17/17 A2994 RMK AO2 T01720167
KPTW - Pottstown, Pennsylvania, USA
Distance from station: WSW 88mi, 141km
Updated: 05/21/2022 3:54am
Fog, Overcast
Fog, Overcast
 Wind from NE
Wind: NE 3 mph , 6 km/h
Temperature: 64°F , 18°C
Dew Point: 64°F , 18°C
Humidity: 100%
Barometer: 29.96 inHg , 1014.6 hPa
Summary: Fog
Clouds: Overcast
Visibility: 1/2 mile , 0.8 km
Cloud details: Overcast 200 ft
2022/05/21 07:54 KPTW 210754Z AUTO 04003KT 1/2SM FG VV002 18/18 A2996 RMK AO2 SLP142 T01780178
 
KSNC - Chester, Connecticut, USA
Distance from station: ENE 90mi, 146km
Updated: 05/21/2022 3:55am
Fog
Fog
 Wind from calm
Wind: Calm
Temperature: 63°F , 17°C
Dew Point: 63°F , 17°C
Humidity: 100%
Barometer: 29.95 inHg , 1014.2 hPa
Summary: Fog
Visibility: less than 1/4 mile , 0.4 km
2022/05/21 07:55 KSNC 210755Z AUTO 00000KT M1/4SM FG 17/17 A2995 RMK AO2
KPHL - Philadelphia, Pennsylvania, USA
Distance from station: SW 91mi, 146km
Updated: 05/21/2022 3:54am
Mostly cloudy
Mostly cloudy
 Wind from NE
Wind: NE 5 mph , 7 km/h
Temperature: 70°F , 21°C
Dew Point: 64°F , 18°C
Humidity: 83%
Barometer: 29.93 inHg , 1013.5 hPa
Clouds: Mostly cloudy
Visibility: 8 miles , 13 km
Cloud details: Mostly cloudy 17000 ft
Mostly cloudy 21000 ft
Mostly cloudy 25000 ft
2022/05/21 07:54 KPHL 210754Z 05004KT 8SM BKN170 BKN210 BKN250 21/18 A2993 RMK AO2 SLP136 T02060183 $
 
KAVP - Avoca/Wilkes B., Pennsylvania, USA
Distance from station: WNW 91mi, 147km
Updated: 05/21/2022 3:54am
Mist, Clear
Mist, Clear
 Wind from calm
Wind: Calm
Temperature: 64°F , 18°C
Dew Point: 63°F , 17°C
Humidity: 94%
Barometer: 29.94 inHg , 1013.9 hPa
Summary: Mist
Clouds: Clear
Visibility: 2 1/2 miles , 4 km
2022/05/21 07:54 KAVP 210754Z 00000KT 2 1/2SM BR CLR 18/17 A2994 RMK AO2 SLP130 T01830172
KHFD - Hartford/Brainar, Connecticut, USA
Distance from station: NE 96mi, 155km
Updated: 05/21/2022 3:53am
Mist, Overcast
Mist, Overcast
 Wind from SSE
Wind: SSE 3 mph , 6 km/h
Temperature: 64°F , 18°C
Dew Point: 63°F , 17°C
Humidity: 94%
Barometer: 29.94 inHg , 1013.9 hPa
Summary: Mist
Clouds: Overcast
Visibility: 1 3/4 miles , 2.8 km
Cloud details: Overcast 300 ft
2022/05/21 07:53 KHFD 210753Z AUTO 15003KT 1 3/4SM BR OVC003 18/17 A2994 RMK AO2 SLP137 T01780172
 
KHTO - East Hampton, New York, USA
Distance from station: E 96mi, 155km
Updated: 05/21/2022 3:55am
Mist, Overcast
Mist, Overcast
 Wind from S
Wind: S 5 mph , 7 km/h
Temperature: 59°F , 15°C
Dew Point: 59°F , 15°C
Humidity: 100%
Barometer: 29.95 inHg , 1014.2 hPa
Summary: Mist
Clouds: Overcast
Visibility: 3/4 mile , 1.2 km
Cloud details: Overcast 200 ft
2022/05/21 07:55 KHTO 210755Z AUTO 17004KT 3/4SM BR OVC002 15/15 A2995 RMK AO2 T01480147
KACY - Atlantic City, New Jersey, USA
Distance from station: SSW 99mi, 160km
Updated: 05/21/2022 3:54am
Clear
Clear
 Wind from SSW
Wind: SSW 6 mph , 9 km/h
Temperature: 72°F , 22°C
Dew Point: 64°F , 18°C
Humidity: 78%
Barometer: 29.93 inHg , 1013.5 hPa
Clouds: Clear
Visibility: 9 miles , 14 km
2022/05/21 07:54 KACY 210754Z 21005KT 9SM CLR 22/18 A2993 RMK AO2 SLP133 T02170183